sensor_id;sensor_type;location;lat;lon;timestamp;P1;durP1;ratioP1;P2;durP2;ratioP2
10550;SDS011;5324;50.684;3.862;2022-11-20T00:01:52;39.20;;;21.90;;
10550;SDS011;5324;50.684;3.862;2022-11-20T00:04:18;47.23;;;21.20;;
10550;SDS011;5324;50.684;3.862;2022-11-20T00:06:44;36.80;;;19.77;;
10550;SDS011;5324;50.684;3.862;2022-11-20T00:09:10;44.30;;;21.20;;
10550;SDS011;5324;50.684;3.862;2022-11-20T00:11:36;36.60;;;20.73;;
10550;SDS011;5324;50.684;3.862;2022-11-20T00:14:02;42.10;;;21.97;;
10550;SDS011;5324;50.684;3.862;2022-11-20T00:16:30;43.80;;;22.27;;
10550;SDS011;5324;50.684;3.862;2022-11-20T00:18:56;39.70;;;22.13;;
10550;SDS011;5324;50.684;3.862;2022-11-20T00:21:23;41.40;;;21.47;;
10550;SDS011;5324;50.684;3.862;2022-11-20T00:23:50;41.33;;;22.17;;
10550;SDS011;5324;50.684;3.862;2022-11-20T00:26:17;45.47;;;21.43;;
10550;SDS011;5324;50.684;3.862;2022-11-20T00:28:43;48.43;;;22.70;;
10550;SDS011;5324;50.684;3.862;2022-11-20T00:31:13;40.20;;;20.87;;
10550;SDS011;5324;50.684;3.862;2022-11-20T00:33:39;50.70;;;23.67;;
10550;SDS011;5324;50.684;3.862;2022-11-20T00:36:06;43.80;;;21.57;;
10550;SDS011;5324;50.684;3.862;2022-11-20T00:38:33;45.10;;;21.33;;
10550;SDS011;5324;50.684;3.862;2022-11-20T00:41:00;37.60;;;21.30;;
10550;SDS011;5324;50.684;3.862;2022-11-20T00:43:26;41.83;;;21.00;;
10550;SDS011;5324;50.684;3.862;2022-11-20T00:45:59;39.43;;;22.03;;
10550;SDS011;5324;50.684;3.862;2022-11-20T00:48:25;42.57;;;21.90;;
10550;SDS011;5324;50.684;3.862;2022-11-20T00:50:52;44.63;;;21.57;;
10550;SDS011;5324;50.684;3.862;2022-11-20T00:53:18;36.07;;;20.13;;
10550;SDS011;5324;50.684;3.862;2022-11-20T00:56:00;40.07;;;19.47;;
10550;SDS011;5324;50.684;3.862;2022-11-20T00:58:35;36.37;;;19.10;;
10550;SDS011;5324;50.684;3.862;2022-11-20T01:01:01;37.60;;;19.53;;
10550;SDS011;5324;50.684;3.862;2022-11-20T01:03:30;37.33;;;19.83;;
10550;SDS011;5324;50.684;3.862;2022-11-20T01:05:59;35.93;;;19.93;;
10550;SDS011;5324;50.684;3.862;2022-11-20T01:08:28;38.23;;;19.07;;
10550;SDS011;5324;50.684;3.862;2022-11-20T01:10:58;34.50;;;18.93;;
10550;SDS011;5324;50.684;3.862;2022-11-20T01:13:24;37.20;;;19.53;;
10550;SDS011;5324;50.684;3.862;2022-11-20T01:16:20;36.67;;;19.93;;
10550;SDS011;5324;50.684;3.862;2022-11-20T01:18:47;40.03;;;19.00;;
10550;SDS011;5324;50.684;3.862;2022-11-20T01:21:15;36.70;;;18.40;;
10550;SDS011;5324;50.684;3.862;2022-11-20T01:23:42;32.73;;;18.97;;
10550;SDS011;5324;50.684;3.862;2022-11-20T01:26:12;32.10;;;18.77;;
10550;SDS011;5324;50.684;3.862;2022-11-20T01:28:39;31.90;;;18.33;;
10550;SDS011;5324;50.684;3.862;2022-11-20T01:33:38;34.87;;;18.23;;
10550;SDS011;5324;50.684;3.862;2022-11-20T01:36:05;34.70;;;18.10;;
10550;SDS011;5324;50.684;3.862;2022-11-20T01:38:32;34.27;;;17.77;;
10550;SDS011;5324;50.684;3.862;2022-11-20T01:40:58;35.47;;;18.17;;
10550;SDS011;5324;50.684;3.862;2022-11-20T01:43:24;34.53;;;17.67;;
10550;SDS011;5324;50.684;3.862;2022-11-20T01:48:42;30.70;;;16.93;;
10550;SDS011;5324;50.684;3.862;2022-11-20T01:53:53;31.77;;;16.53;;
10550;SDS011;5324;50.684;3.862;2022-11-20T01:56:21;29.80;;;17.27;;
10550;SDS011;5324;50.684;3.862;2022-11-20T01:58:48;30.70;;;16.20;;
10550;SDS011;5324;50.684;3.862;2022-11-20T02:01:15;32.13;;;17.57;;
10550;SDS011;5324;50.684;3.862;2022-11-20T02:03:41;34.87;;;17.43;;
10550;SDS011;5324;50.684;3.862;2022-11-20T02:08:37;34.73;;;17.63;;
10550;SDS011;5324;50.684;3.862;2022-11-20T02:11:03;34.17;;;17.90;;
10550;SDS011;5324;50.684;3.862;2022-11-20T02:13:29;34.27;;;18.27;;
10550;SDS011;5324;50.684;3.862;2022-11-20T02:16:09;34.87;;;17.40;;
10550;SDS011;5324;50.684;3.862;2022-11-20T02:18:35;36.90;;;19.03;;
10550;SDS011;5324;50.684;3.862;2022-11-20T02:21:04;35.60;;;19.40;;
10550;SDS011;5324;50.684;3.862;2022-11-20T02:23:38;31.73;;;18.10;;
10550;SDS011;5324;50.684;3.862;2022-11-20T02:26:04;32.47;;;17.57;;
10550;SDS011;5324;50.684;3.862;2022-11-20T02:28:32;36.13;;;17.90;;
10550;SDS011;5324;50.684;3.862;2022-11-20T02:30:58;36.53;;;18.07;;
10550;SDS011;5324;50.684;3.862;2022-11-20T02:33:24;37.10;;;18.97;;
10550;SDS011;5324;50.684;3.862;2022-11-20T02:35:50;36.70;;;18.33;;
10550;SDS011;5324;50.684;3.862;2022-11-20T02:38:16;31.50;;;16.93;;
10550;SDS011;5324;50.684;3.862;2022-11-20T02:40:42;34.17;;;17.67;;
10550;SDS011;5324;50.684;3.862;2022-11-20T02:43:08;35.07;;;19.17;;
10550;SDS011;5324;50.684;3.862;2022-11-20T02:45:34;29.43;;;17.47;;
10550;SDS011;5324;50.684;3.862;2022-11-20T02:48:00;33.80;;;17.13;;
10550;SDS011;5324;50.684;3.862;2022-11-20T02:50:26;31.23;;;16.83;;
10550;SDS011;5324;50.684;3.862;2022-11-20T02:52:52;29.23;;;16.80;;
10550;SDS011;5324;50.684;3.862;2022-11-20T02:55:18;32.57;;;17.00;;
10550;SDS011;5324;50.684;3.862;2022-11-20T02:57:44;32.63;;;16.47;;
10550;SDS011;5324;50.684;3.862;2022-11-20T03:00:10;28.40;;;16.07;;
10550;SDS011;5324;50.684;3.862;2022-11-20T03:02:37;32.73;;;17.70;;
10550;SDS011;5324;50.684;3.862;2022-11-20T03:05:03;32.50;;;16.73;;
10550;SDS011;5324;50.684;3.862;2022-11-20T03:07:29;30.63;;;16.80;;
10550;SDS011;5324;50.684;3.862;2022-11-20T03:09:55;31.80;;;16.77;;
10550;SDS011;5324;50.684;3.862;2022-11-20T03:12:21;30.33;;;17.20;;
10550;SDS011;5324;50.684;3.862;2022-11-20T03:14:47;30.17;;;17.07;;
10550;SDS011;5324;50.684;3.862;2022-11-20T03:17:13;32.93;;;17.37;;
10550;SDS011;5324;50.684;3.862;2022-11-20T03:19:39;34.30;;;16.70;;
10550;SDS011;5324;50.684;3.862;2022-11-20T03:22:05;31.53;;;16.73;;
10550;SDS011;5324;50.684;3.862;2022-11-20T03:24:31;32.37;;;16.93;;
10550;SDS011;5324;50.684;3.862;2022-11-20T03:26:57;30.93;;;16.40;;
10550;SDS011;5324;50.684;3.862;2022-11-20T03:29:23;31.40;;;16.53;;
10550;SDS011;5324;50.684;3.862;2022-11-20T03:31:49;32.10;;;17.20;;
10550;SDS011;5324;50.684;3.862;2022-11-20T03:34:15;27.93;;;15.77;;
10550;SDS011;5324;50.684;3.862;2022-11-20T03:36:41;31.63;;;16.30;;
10550;SDS011;5324;50.684;3.862;2022-11-20T03:39:08;30.80;;;16.67;;
10550;SDS011;5324;50.684;3.862;2022-11-20T03:41:39;32.23;;;16.73;;
10550;SDS011;5324;50.684;3.862;2022-11-20T03:44:06;29.93;;;16.67;;
10550;SDS011;5324;50.684;3.862;2022-11-20T03:46:33;32.17;;;16.83;;
10550;SDS011;5324;50.684;3.862;2022-11-20T03:48:59;28.63;;;16.17;;
10550;SDS011;5324;50.684;3.862;2022-11-20T03:51:26;32.80;;;16.53;;
10550;SDS011;5324;50.684;3.862;2022-11-20T03:53:53;30.20;;;16.17;;
10550;SDS011;5324;50.684;3.862;2022-11-20T03:56:21;30.50;;;16.33;;
10550;SDS011;5324;50.684;3.862;2022-11-20T03:58:48;32.43;;;16.97;;
10550;SDS011;5324;50.684;3.862;2022-11-20T04:01:15;34.43;;;17.40;;
10550;SDS011;5324;50.684;3.862;2022-11-20T04:03:42;35.83;;;17.80;;
10550;SDS011;5324;50.684;3.862;2022-11-20T04:06:09;31.53;;;16.90;;
10550;SDS011;5324;50.684;3.862;2022-11-20T04:08:36;36.07;;;17.77;;
10550;SDS011;5324;50.684;3.862;2022-11-20T04:11:12;31.03;;;17.30;;
10550;SDS011;5324;50.684;3.862;2022-11-20T04:13:38;31.60;;;17.30;;
10550;SDS011;5324;50.684;3.862;2022-11-20T04:16:05;30.47;;;16.87;;
10550;SDS011;5324;50.684;3.862;2022-11-20T04:18:32;34.17;;;17.70;;
10550;SDS011;5324;50.684;3.862;2022-11-20T04:20:58;29.80;;;16.00;;
10550;SDS011;5324;50.684;3.862;2022-11-20T04:23:24;31.80;;;16.43;;
10550;SDS011;5324;50.684;3.862;2022-11-20T04:25:50;33.40;;;16.97;;
10550;SDS011;5324;50.684;3.862;2022-11-20T04:28:16;32.03;;;17.07;;
10550;SDS011;5324;50.684;3.862;2022-11-20T04:30:42;28.03;;;15.50;;
10550;SDS011;5324;50.684;3.862;2022-11-20T04:33:08;29.50;;;16.67;;
10550;SDS011;5324;50.684;3.862;2022-11-20T04:35:35;35.17;;;17.47;;
10550;SDS011;5324;50.684;3.862;2022-11-20T04:38:01;36.87;;;17.80;;
10550;SDS011;5324;50.684;3.862;2022-11-20T04:40:27;32.63;;;16.90;;
10550;SDS011;5324;50.684;3.862;2022-11-20T04:42:54;28.30;;;15.33;;
10550;SDS011;5324;50.684;3.862;2022-11-20T04:45:20;31.20;;;17.20;;
10550;SDS011;5324;50.684;3.862;2022-11-20T04:47:46;30.70;;;16.17;;
10550;SDS011;5324;50.684;3.862;2022-11-20T04:50:12;30.70;;;16.00;;
10550;SDS011;5324;50.684;3.862;2022-11-20T04:52:38;31.07;;;15.93;;
10550;SDS011;5324;50.684;3.862;2022-11-20T04:55:04;28.97;;;15.50;;
10550;SDS011;5324;50.684;3.862;2022-11-20T04:57:30;30.63;;;15.70;;
10550;SDS011;5324;50.684;3.862;2022-11-20T04:59:56;28.57;;;15.17;;
10550;SDS011;5324;50.684;3.862;2022-11-20T05:02:22;31.10;;;15.83;;
10550;SDS011;5324;50.684;3.862;2022-11-20T05:04:48;31.23;;;16.70;;
10550;SDS011;5324;50.684;3.862;2022-11-20T05:07:14;33.30;;;16.20;;
10550;SDS011;5324;50.684;3.862;2022-11-20T05:09:40;32.07;;;16.83;;
10550;SDS011;5324;50.684;3.862;2022-11-20T05:12:09;30.00;;;16.13;;
10550;SDS011;5324;50.684;3.862;2022-11-20T05:14:35;27.47;;;16.63;;
10550;SDS011;5324;50.684;3.862;2022-11-20T05:17:01;31.97;;;17.30;;
10550;SDS011;5324;50.684;3.862;2022-11-20T05:19:27;30.90;;;15.20;;
10550;SDS011;5324;50.684;3.862;2022-11-20T05:21:53;31.83;;;16.67;;
10550;SDS011;5324;50.684;3.862;2022-11-20T05:24:19;30.97;;;16.07;;
10550;SDS011;5324;50.684;3.862;2022-11-20T05:26:45;31.23;;;16.23;;
10550;SDS011;5324;50.684;3.862;2022-11-20T05:29:11;31.67;;;17.07;;
10550;SDS011;5324;50.684;3.862;2022-11-20T05:31:38;32.50;;;16.07;;
10550;SDS011;5324;50.684;3.862;2022-11-20T05:34:04;32.57;;;15.93;;
10550;SDS011;5324;50.684;3.862;2022-11-20T05:36:30;29.70;;;15.53;;
10550;SDS011;5324;50.684;3.862;2022-11-20T05:38:56;30.83;;;16.10;;
10550;SDS011;5324;50.684;3.862;2022-11-20T05:41:22;30.03;;;15.23;;
10550;SDS011;5324;50.684;3.862;2022-11-20T05:43:49;30.33;;;15.40;;
10550;SDS011;5324;50.684;3.862;2022-11-20T05:46:16;29.87;;;16.33;;
10550;SDS011;5324;50.684;3.862;2022-11-20T05:48:43;28.50;;;15.03;;
10550;SDS011;5324;50.684;3.862;2022-11-20T05:51:10;31.17;;;16.87;;
10550;SDS011;5324;50.684;3.862;2022-11-20T05:53:36;30.10;;;15.07;;
10550;SDS011;5324;50.684;3.862;2022-11-20T05:56:04;25.60;;;14.43;;
10550;SDS011;5324;50.684;3.862;2022-11-20T05:58:30;27.47;;;15.07;;
10550;SDS011;5324;50.684;3.862;2022-11-20T06:01:03;27.70;;;14.13;;
10550;SDS011;5324;50.684;3.862;2022-11-20T06:03:30;26.23;;;14.60;;
10550;SDS011;5324;50.684;3.862;2022-11-20T06:05:56;25.30;;;13.53;;
10550;SDS011;5324;50.684;3.862;2022-11-20T06:08:22;25.07;;;14.13;;
10550;SDS011;5324;50.684;3.862;2022-11-20T06:10:48;24.60;;;12.87;;
10550;SDS011;5324;50.684;3.862;2022-11-20T06:13:14;22.23;;;12.97;;
10550;SDS011;5324;50.684;3.862;2022-11-20T06:15:40;23.50;;;12.57;;
10550;SDS011;5324;50.684;3.862;2022-11-20T06:18:06;22.77;;;13.03;;
10550;SDS011;5324;50.684;3.862;2022-11-20T06:20:31;25.07;;;13.63;;
10550;SDS011;5324;50.684;3.862;2022-11-20T06:22:57;23.67;;;13.40;;
10550;SDS011;5324;50.684;3.862;2022-11-20T06:25:23;24.03;;;12.20;;
10550;SDS011;5324;50.684;3.862;2022-11-20T06:27:49;24.27;;;14.30;;
10550;SDS011;5324;50.684;3.862;2022-11-20T06:30:15;26.30;;;12.57;;
10550;SDS011;5324;50.684;3.862;2022-11-20T06:32:41;21.93;;;12.23;;
10550;SDS011;5324;50.684;3.862;2022-11-20T06:35:07;22.43;;;12.20;;
10550;SDS011;5324;50.684;3.862;2022-11-20T06:37:33;24.63;;;12.77;;
10550;SDS011;5324;50.684;3.862;2022-11-20T06:39:59;24.87;;;13.00;;
10550;SDS011;5324;50.684;3.862;2022-11-20T06:42:25;27.53;;;13.20;;
10550;SDS011;5324;50.684;3.862;2022-11-20T06:44:51;25.73;;;13.60;;
10550;SDS011;5324;50.684;3.862;2022-11-20T06:47:17;25.23;;;12.73;;
10550;SDS011;5324;50.684;3.862;2022-11-20T06:49:43;28.83;;;13.07;;
10550;SDS011;5324;50.684;3.862;2022-11-20T06:52:09;23.27;;;12.73;;
10550;SDS011;5324;50.684;3.862;2022-11-20T06:54:35;22.53;;;13.20;;
10550;SDS011;5324;50.684;3.862;2022-11-20T06:57:01;24.67;;;13.80;;
10550;SDS011;5324;50.684;3.862;2022-11-20T06:59:27;25.73;;;13.00;;
10550;SDS011;5324;50.684;3.862;2022-11-20T07:01:53;26.20;;;13.90;;
10550;SDS011;5324;50.684;3.862;2022-11-20T07:04:19;25.67;;;13.17;;
10550;SDS011;5324;50.684;3.862;2022-11-20T07:06:45;24.33;;;13.67;;
10550;SDS011;5324;50.684;3.862;2022-11-20T07:09:11;30.10;;;13.67;;
10550;SDS011;5324;50.684;3.862;2022-11-20T07:11:37;23.40;;;13.00;;
10550;SDS011;5324;50.684;3.862;2022-11-20T07:14:03;20.93;;;12.20;;
10550;SDS011;5324;50.684;3.862;2022-11-20T07:16:30;26.57;;;13.17;;
10550;SDS011;5324;50.684;3.862;2022-11-20T07:18:56;24.93;;;13.70;;
10550;SDS011;5324;50.684;3.862;2022-11-20T07:21:22;24.43;;;13.07;;
10550;SDS011;5324;50.684;3.862;2022-11-20T07:23:48;25.43;;;13.37;;
10550;SDS011;5324;50.684;3.862;2022-11-20T07:26:14;26.60;;;13.43;;
10550;SDS011;5324;50.684;3.862;2022-11-20T07:28:43;29.07;;;14.70;;
10550;SDS011;5324;50.684;3.862;2022-11-20T07:31:10;22.87;;;14.03;;
10550;SDS011;5324;50.684;3.862;2022-11-20T07:33:37;25.43;;;13.03;;
10550;SDS011;5324;50.684;3.862;2022-11-20T07:36:03;27.37;;;12.87;;
10550;SDS011;5324;50.684;3.862;2022-11-20T07:38:29;25.17;;;13.47;;
10550;SDS011;5324;50.684;3.862;2022-11-20T07:40:55;31.63;;;13.93;;
10550;SDS011;5324;50.684;3.862;2022-11-20T07:43:22;31.07;;;13.57;;
10550;SDS011;5324;50.684;3.862;2022-11-20T07:45:48;28.23;;;13.97;;
10550;SDS011;5324;50.684;3.862;2022-11-20T07:48:15;26.13;;;12.80;;
10550;SDS011;5324;50.684;3.862;2022-11-20T07:50:41;25.73;;;14.33;;
10550;SDS011;5324;50.684;3.862;2022-11-20T07:53:07;24.70;;;13.57;;
10550;SDS011;5324;50.684;3.862;2022-11-20T07:55:33;29.83;;;13.63;;
10550;SDS011;5324;50.684;3.862;2022-11-20T07:57:59;28.63;;;13.73;;
10550;SDS011;5324;50.684;3.862;2022-11-20T08:00:25;26.43;;;13.60;;
10550;SDS011;5324;50.684;3.862;2022-11-20T08:02:51;25.10;;;13.37;;
10550;SDS011;5324;50.684;3.862;2022-11-20T08:05:17;30.47;;;13.77;;
10550;SDS011;5324;50.684;3.862;2022-11-20T08:07:43;22.47;;;12.30;;
10550;SDS011;5324;50.684;3.862;2022-11-20T08:10:10;25.47;;;13.20;;
10550;SDS011;5324;50.684;3.862;2022-11-20T08:12:43;27.43;;;13.73;;
10550;SDS011;5324;50.684;3.862;2022-11-20T08:15:28;23.77;;;13.37;;
10550;SDS011;5324;50.684;3.862;2022-11-20T08:17:59;23.40;;;11.83;;
10550;SDS011;5324;50.684;3.862;2022-11-20T08:20:25;23.77;;;13.50;;
10550;SDS011;5324;50.684;3.862;2022-11-20T08:22:51;21.33;;;11.70;;
10550;SDS011;5324;50.684;3.862;2022-11-20T08:25:17;20.97;;;11.60;;
10550;SDS011;5324;50.684;3.862;2022-11-20T08:27:43;23.60;;;11.83;;
10550;SDS011;5324;50.684;3.862;2022-11-20T08:30:09;23.10;;;11.37;;
10550;SDS011;5324;50.684;3.862;2022-11-20T08:32:35;20.47;;;11.53;;
10550;SDS011;5324;50.684;3.862;2022-11-20T08:35:02;19.37;;;11.90;;
10550;SDS011;5324;50.684;3.862;2022-11-20T08:37:28;18.23;;;10.10;;
10550;SDS011;5324;50.684;3.862;2022-11-20T08:39:54;22.13;;;10.20;;
10550;SDS011;5324;50.684;3.862;2022-11-20T08:42:22;16.87;;;10.43;;
10550;SDS011;5324;50.684;3.862;2022-11-20T08:44:47;18.50;;;10.10;;
10550;SDS011;5324;50.684;3.862;2022-11-20T08:47:13;16.70;;;10.13;;
10550;SDS011;5324;50.684;3.862;2022-11-20T08:49:39;13.33;;;8.97;;
10550;SDS011;5324;50.684;3.862;2022-11-20T08:52:05;14.50;;;8.23;;
10550;SDS011;5324;50.684;3.862;2022-11-20T08:54:31;14.23;;;7.70;;
10550;SDS011;5324;50.684;3.862;2022-11-20T08:56:57;14.87;;;8.10;;
10550;SDS011;5324;50.684;3.862;2022-11-20T08:59:23;11.43;;;7.00;;
10550;SDS011;5324;50.684;3.862;2022-11-20T09:01:49;12.10;;;7.60;;
10550;SDS011;5324;50.684;3.862;2022-11-20T09:04:15;11.73;;;7.30;;
10550;SDS011;5324;50.684;3.862;2022-11-20T09:06:41;11.70;;;6.83;;
10550;SDS011;5324;50.684;3.862;2022-11-20T09:09:07;11.47;;;6.20;;
10550;SDS011;5324;50.684;3.862;2022-11-20T09:11:34;9.63;;;6.40;;
10550;SDS011;5324;50.684;3.862;2022-11-20T09:14:01;13.37;;;6.50;;
10550;SDS011;5324;50.684;3.862;2022-11-20T09:16:27;12.20;;;6.60;;
10550;SDS011;5324;50.684;3.862;2022-11-20T09:18:53;11.97;;;6.37;;
10550;SDS011;5324;50.684;3.862;2022-11-20T09:21:19;10.47;;;6.30;;
10550;SDS011;5324;50.684;3.862;2022-11-20T09:23:47;8.40;;;5.37;;
10550;SDS011;5324;50.684;3.862;2022-11-20T09:26:13;7.80;;;4.70;;
10550;SDS011;5324;50.684;3.862;2022-11-20T09:28:39;9.00;;;5.33;;
10550;SDS011;5324;50.684;3.862;2022-11-20T09:31:06;8.63;;;4.77;;
10550;SDS011;5324;50.684;3.862;2022-11-20T09:33:32;7.60;;;4.30;;
10550;SDS011;5324;50.684;3.862;2022-11-20T09:35:59;7.67;;;3.90;;
10550;SDS011;5324;50.684;3.862;2022-11-20T09:38:25;5.17;;;3.60;;
10550;SDS011;5324;50.684;3.862;2022-11-20T09:41:02;5.00;;;3.73;;
10550;SDS011;5324;50.684;3.862;2022-11-20T09:43:36;7.87;;;3.97;;
10550;SDS011;5324;50.684;3.862;2022-11-20T09:46:10;4.30;;;3.50;;
10550;SDS011;5324;50.684;3.862;2022-11-20T09:48:55;4.60;;;3.30;;
10550;SDS011;5324;50.684;3.862;2022-11-20T09:56:29;6.10;;;3.73;;
10550;SDS011;5324;50.684;3.862;2022-11-20T09:58:57;9.20;;;3.83;;
10550;SDS011;5324;50.684;3.862;2022-11-20T10:01:32;5.93;;;3.83;;
10550;SDS011;5324;50.684;3.862;2022-11-20T10:06:32;5.33;;;3.30;;
10550;SDS011;5324;50.684;3.862;2022-11-20T10:17:08;4.37;;;2.70;;
10550;SDS011;5324;50.684;3.862;2022-11-20T10:24:41;4.63;;;3.17;;
10550;SDS011;5324;50.684;3.862;2022-11-20T10:29:38;3.83;;;2.20;;
10550;SDS011;5324;50.684;3.862;2022-11-20T10:32:24;4.10;;;3.17;;
10550;SDS011;5324;50.684;3.862;2022-11-20T10:35:18;4.83;;;2.57;;
10550;SDS011;5324;50.684;3.862;2022-11-20T10:37:51;3.70;;;2.87;;
10550;SDS011;5324;50.684;3.862;2022-11-20T10:40:23;6.13;;;3.20;;
10550;SDS011;5324;50.684;3.862;2022-11-20T10:42:52;4.97;;;2.80;;
10550;SDS011;5324;50.684;3.862;2022-11-20T10:48:12;3.97;;;2.43;;
10550;SDS011;5324;50.684;3.862;2022-11-20T10:50:37;4.63;;;2.60;;
10550;SDS011;5324;50.684;3.862;2022-11-20T11:00:30;5.03;;;2.17;;
10550;SDS011;5324;50.684;3.862;2022-11-20T11:02:56;7.87;;;2.17;;
10550;SDS011;5324;50.684;3.862;2022-11-20T11:05:41;4.67;;;1.60;;
10550;SDS011;5324;50.684;3.862;2022-11-20T11:08:10;3.10;;;2.10;;
10550;SDS011;5324;50.684;3.862;2022-11-20T11:10:44;4.83;;;2.43;;
10550;SDS011;5324;50.684;3.862;2022-11-20T11:13:21;3.27;;;1.87;;
10550;SDS011;5324;50.684;3.862;2022-11-20T11:15:48;3.17;;;1.70;;
10550;SDS011;5324;50.684;3.862;2022-11-20T11:18:33;3.83;;;2.20;;
10550;SDS011;5324;50.684;3.862;2022-11-20T11:21:00;5.30;;;2.00;;
10550;SDS011;5324;50.684;3.862;2022-11-20T11:23:30;6.10;;;2.23;;
10550;SDS011;5324;50.684;3.862;2022-11-20T11:25:58;4.63;;;2.20;;
10550;SDS011;5324;50.684;3.862;2022-11-20T11:28:24;3.27;;;2.30;;
10550;SDS011;5324;50.684;3.862;2022-11-20T11:30:52;4.13;;;2.30;;
10550;SDS011;5324;50.684;3.862;2022-11-20T11:33:28;2.97;;;2.20;;
10550;SDS011;5324;50.684;3.862;2022-11-20T11:35:55;3.23;;;1.67;;
10550;SDS011;5324;50.684;3.862;2022-11-20T11:38:35;3.00;;;2.10;;
10550;SDS011;5324;50.684;3.862;2022-11-20T11:41:03;4.93;;;2.07;;
10550;SDS011;5324;50.684;3.862;2022-11-20T11:43:30;4.10;;;2.13;;
10550;SDS011;5324;50.684;3.862;2022-11-20T11:46:24;4.40;;;2.40;;
10550;SDS011;5324;50.684;3.862;2022-11-20T11:48:57;3.57;;;2.10;;
10550;SDS011;5324;50.684;3.862;2022-11-20T11:54:24;5.80;;;2.40;;
10550;SDS011;5324;50.684;3.862;2022-11-20T11:56:50;5.17;;;2.63;;
10550;SDS011;5324;50.684;3.862;2022-11-20T11:59:26;5.73;;;2.40;;
10550;SDS011;5324;50.684;3.862;2022-11-20T12:01:57;5.90;;;2.70;;
10550;SDS011;5324;50.684;3.862;2022-11-20T12:07:15;3.03;;;2.00;;
10550;SDS011;5324;50.684;3.862;2022-11-20T12:09:47;4.00;;;2.00;;
10550;SDS011;5324;50.684;3.862;2022-11-20T12:12:17;3.77;;;2.27;;
10550;SDS011;5324;50.684;3.862;2022-11-20T12:14:45;4.60;;;2.07;;
10550;SDS011;5324;50.684;3.862;2022-11-20T12:17:12;5.43;;;2.40;;
10550;SDS011;5324;50.684;3.862;2022-11-20T12:19:38;5.03;;;2.17;;
10550;SDS011;5324;50.684;3.862;2022-11-20T12:22:09;4.03;;;2.10;;
10550;SDS011;5324;50.684;3.862;2022-11-20T12:29:48;4.00;;;2.23;;
10550;SDS011;5324;50.684;3.862;2022-11-20T12:35:01;2.50;;;2.00;;
10550;SDS011;5324;50.684;3.862;2022-11-20T12:40:02;3.77;;;2.43;;
10550;SDS011;5324;50.684;3.862;2022-11-20T12:42:36;3.03;;;2.20;;
10550;SDS011;5324;50.684;3.862;2022-11-20T12:45:46;3.17;;;1.63;;
10550;SDS011;5324;50.684;3.862;2022-11-20T12:48:35;5.33;;;2.60;;
10550;SDS011;5324;50.684;3.862;2022-11-20T13:06:46;1.80;;;1.70;;
10550;SDS011;5324;50.684;3.862;2022-11-20T13:09:13;3.37;;;2.30;;
10550;SDS011;5324;50.684;3.862;2022-11-20T14:47:48;3.50;;;1.93;;
10550;SDS011;5324;50.684;3.862;2022-11-20T14:56:26;2.83;;;1.40;;
10550;SDS011;5324;50.684;3.862;2022-11-20T14:58:59;3.00;;;1.70;;
10550;SDS011;5324;50.684;3.862;2022-11-20T15:01:28;4.73;;;1.93;;
10550;SDS011;5324;50.684;3.862;2022-11-20T15:10:22;4.20;;;2.03;;
10550;SDS011;5324;50.684;3.862;2022-11-20T15:13:14;3.70;;;2.07;;
10550;SDS011;5324;50.684;3.862;2022-11-20T15:16:15;3.00;;;1.73;;
10550;SDS011;5324;50.684;3.862;2022-11-20T15:18:44;6.90;;;2.13;;
10550;SDS011;5324;50.684;3.862;2022-11-20T15:23:55;4.77;;;2.10;;
10550;SDS011;5324;50.684;3.862;2022-11-20T15:26:28;5.13;;;2.07;;
10550;SDS011;5324;50.684;3.862;2022-11-20T15:29:10;4.63;;;1.70;;
10550;SDS011;5324;50.684;3.862;2022-11-20T15:56:55;9.17;;;2.37;;
10550;SDS011;5324;50.684;3.862;2022-11-20T16:02:42;5.43;;;2.13;;
10550;SDS011;5324;50.684;3.862;2022-11-20T16:05:45;9.73;;;2.20;;
10550;SDS011;5324;50.684;3.862;2022-11-20T16:08:12;6.40;;;2.20;;
10550;SDS011;5324;50.684;3.862;2022-11-20T16:10:38;5.17;;;2.70;;
10550;SDS011;5324;50.684;3.862;2022-11-20T16:13:05;8.83;;;2.63;;
10550;SDS011;5324;50.684;3.862;2022-11-20T16:15:56;9.23;;;2.37;;
10550;SDS011;5324;50.684;3.862;2022-11-20T16:18:23;6.43;;;1.97;;
10550;SDS011;5324;50.684;3.862;2022-11-20T16:20:53;8.83;;;2.17;;
10550;SDS011;5324;50.684;3.862;2022-11-20T16:23:19;10.23;;;2.30;;
10550;SDS011;5324;50.684;3.862;2022-11-20T16:25:45;6.67;;;2.37;;
10550;SDS011;5324;50.684;3.862;2022-11-20T16:28:12;9.40;;;2.50;;
10550;SDS011;5324;50.684;3.862;2022-11-20T16:30:38;9.23;;;2.03;;
10550;SDS011;5324;50.684;3.862;2022-11-20T16:33:04;4.90;;;2.40;;
10550;SDS011;5324;50.684;3.862;2022-11-20T16:35:34;8.23;;;2.23;;
10550;SDS011;5324;50.684;3.862;2022-11-20T16:38:00;6.63;;;2.10;;
10550;SDS011;5324;50.684;3.862;2022-11-20T16:40:26;9.67;;;2.23;;
10550;SDS011;5324;50.684;3.862;2022-11-20T16:42:52;6.90;;;2.23;;
10550;SDS011;5324;50.684;3.862;2022-11-20T16:45:18;6.87;;;2.20;;
10550;SDS011;5324;50.684;3.862;2022-11-20T16:47:44;9.10;;;2.73;;
10550;SDS011;5324;50.684;3.862;2022-11-20T16:50:10;5.07;;;2.23;;
10550;SDS011;5324;50.684;3.862;2022-11-20T16:52:36;6.03;;;2.37;;
10550;SDS011;5324;50.684;3.862;2022-11-20T16:55:03;7.00;;;2.33;;
10550;SDS011;5324;50.684;3.862;2022-11-20T16:57:29;8.03;;;2.87;;
10550;SDS011;5324;50.684;3.862;2022-11-20T16:59:57;7.67;;;2.63;;
10550;SDS011;5324;50.684;3.862;2022-11-20T17:02:23;9.37;;;2.73;;
10550;SDS011;5324;50.684;3.862;2022-11-20T17:04:50;7.97;;;2.50;;
10550;SDS011;5324;50.684;3.862;2022-11-20T17:07:15;8.47;;;2.97;;
10550;SDS011;5324;50.684;3.862;2022-11-20T17:09:41;7.37;;;2.73;;
10550;SDS011;5324;50.684;3.862;2022-11-20T17:12:07;7.60;;;2.50;;
10550;SDS011;5324;50.684;3.862;2022-11-20T17:14:34;8.20;;;2.67;;
10550;SDS011;5324;50.684;3.862;2022-11-20T17:17:00;11.00;;;3.30;;
10550;SDS011;5324;50.684;3.862;2022-11-20T17:19:26;8.53;;;2.87;;
10550;SDS011;5324;50.684;3.862;2022-11-20T17:21:52;8.90;;;3.00;;
10550;SDS011;5324;50.684;3.862;2022-11-20T17:24:18;8.90;;;2.97;;
10550;SDS011;5324;50.684;3.862;2022-11-20T17:26:44;8.80;;;2.30;;
10550;SDS011;5324;50.684;3.862;2022-11-20T17:29:11;10.37;;;3.10;;
10550;SDS011;5324;50.684;3.862;2022-11-20T17:31:39;6.63;;;2.63;;
10550;SDS011;5324;50.684;3.862;2022-11-20T17:34:06;12.03;;;3.00;;
10550;SDS011;5324;50.684;3.862;2022-11-20T17:36:32;8.87;;;2.90;;
10550;SDS011;5324;50.684;3.862;2022-11-20T17:38:58;10.33;;;3.17;;
10550;SDS011;5324;50.684;3.862;2022-11-20T17:41:25;8.33;;;2.80;;
10550;SDS011;5324;50.684;3.862;2022-11-20T17:43:56;15.27;;;2.87;;
10550;SDS011;5324;50.684;3.862;2022-11-20T17:46:23;12.07;;;3.13;;
10550;SDS011;5324;50.684;3.862;2022-11-20T17:48:49;7.73;;;2.77;;
10550;SDS011;5324;50.684;3.862;2022-11-20T17:53:43;6.53;;;2.40;;
10550;SDS011;5324;50.684;3.862;2022-11-20T17:56:09;8.80;;;3.17;;
10550;SDS011;5324;50.684;3.862;2022-11-20T17:58:54;12.13;;;3.13;;
10550;SDS011;5324;50.684;3.862;2022-11-20T18:01:20;7.53;;;2.90;;
10550;SDS011;5324;50.684;3.862;2022-11-20T18:03:46;8.20;;;2.90;;
10550;SDS011;5324;50.684;3.862;2022-11-20T18:06:13;12.70;;;2.80;;
10550;SDS011;5324;50.684;3.862;2022-11-20T18:08:40;10.87;;;3.43;;
10550;SDS011;5324;50.684;3.862;2022-11-20T18:11:12;7.13;;;2.90;;
10550;SDS011;5324;50.684;3.862;2022-11-20T18:13:39;9.90;;;2.90;;
10550;SDS011;5324;50.684;3.862;2022-11-20T18:16:24;10.73;;;3.07;;
10550;SDS011;5324;50.684;3.862;2022-11-20T18:18:54;6.33;;;2.53;;
10550;SDS011;5324;50.684;3.862;2022-11-20T18:21:21;10.43;;;2.93;;
10550;SDS011;5324;50.684;3.862;2022-11-20T18:23:47;8.20;;;3.13;;
10550;SDS011;5324;50.684;3.862;2022-11-20T18:26:13;8.07;;;2.90;;
10550;SDS011;5324;50.684;3.862;2022-11-20T18:28:39;7.97;;;2.80;;
10550;SDS011;5324;50.684;3.862;2022-11-20T18:31:05;11.23;;;2.90;;